createdAt,value
2023-05-06T00:00:25.071Z,20.81
2023-05-06T00:00:56.669Z,20.80
2023-05-06T00:01:28.173Z,20.81
2023-05-06T00:01:59.767Z,20.81
2023-05-06T00:02:31.317Z,20.83
2023-05-06T00:03:02.907Z,20.81
2023-05-06T00:03:34.660Z,20.81
2023-05-06T00:04:06.494Z,20.81
2023-05-06T00:04:38.206Z,20.79
2023-05-06T00:05:10.085Z,20.80
2023-05-06T00:05:41.827Z,20.80
2023-05-06T00:06:13.485Z,20.80
2023-05-06T00:06:45.015Z,20.80
2023-05-06T00:07:16.502Z,20.80
2023-05-06T00:07:48.041Z,20.78
2023-05-06T00:08:19.788Z,20.79
2023-05-06T00:08:51.325Z,20.79
2023-05-06T00:09:23.262Z,20.78
2023-05-06T00:09:54.840Z,20.78
2023-05-06T00:10:26.396Z,20.79
2023-05-06T00:10:58.117Z,20.78
2023-05-06T00:11:29.790Z,20.78
2023-05-06T00:12:01.472Z,20.79
2023-05-06T00:12:33.092Z,20.78
2023-05-06T00:13:04.727Z,20.79
2023-05-06T00:13:36.436Z,20.78
2023-05-06T00:14:08.090Z,20.78
2023-05-06T00:14:39.582Z,20.77
2023-05-06T00:15:11.502Z,20.79
2023-05-06T00:15:43.351Z,20.80
2023-05-06T00:16:14.933Z,20.80
2023-05-06T00:16:46.647Z,20.78
2023-05-06T00:17:18.239Z,20.78
2023-05-06T00:17:49.781Z,20.77
2023-05-06T00:18:21.383Z,20.77
2023-05-06T00:18:52.946Z,20.77
2023-05-06T00:19:24.539Z,20.78
2023-05-06T00:19:56.113Z,20.76
2023-05-06T00:20:27.884Z,20.76
2023-05-06T00:20:59.473Z,20.77
2023-05-06T00:21:31.055Z,20.78
2023-05-06T00:22:02.638Z,20.76
2023-05-06T00:22:34.161Z,20.78
2023-05-06T00:23:05.752Z,20.78
2023-05-06T00:23:37.341Z,20.78
2023-05-06T00:24:09.041Z,20.76
2023-05-06T00:24:40.558Z,20.77
2023-05-06T00:25:12.166Z,20.76
2023-05-06T00:25:43.798Z,20.76
2023-05-06T00:26:15.270Z,20.79
2023-05-06T00:26:46.890Z,20.79
2023-05-06T00:27:18.383Z,20.76
2023-05-06T00:27:50.094Z,20.77
2023-05-06T00:28:21.662Z,20.76
2023-05-06T00:28:53.189Z,20.77
2023-05-06T00:29:24.767Z,20.77
2023-05-06T00:29:57.851Z,20.77
2023-05-06T00:30:29.429Z,20.77
2023-05-06T00:31:01.009Z,20.78
2023-05-06T00:31:32.577Z,20.75
2023-05-06T00:32:04.395Z,20.75
2023-05-06T00:32:36.110Z,20.76
2023-05-06T00:33:07.750Z,20.73
2023-05-06T00:33:39.477Z,20.74
2023-05-06T00:34:11.166Z,20.76
2023-05-06T00:34:42.896Z,20.77
2023-05-06T00:35:14.456Z,20.77
2023-05-06T00:35:45.931Z,20.77
2023-05-06T00:36:17.545Z,20.75
2023-05-06T00:36:49.058Z,20.77
2023-05-06T00:37:20.588Z,20.77
2023-05-06T00:37:58.542Z,20.78
2023-05-06T00:38:30.319Z,20.78
2023-05-06T00:39:01.862Z,20.77
2023-05-06T00:39:33.405Z,20.76
2023-05-06T00:40:05.303Z,20.78
2023-05-06T00:40:36.889Z,20.77
2023-05-06T00:41:08.498Z,20.75
2023-05-06T00:41:40.061Z,20.75
2023-05-06T00:42:11.556Z,20.76
2023-05-06T00:42:43.153Z,20.74
2023-05-06T00:43:14.750Z,20.75
2023-05-06T00:43:46.219Z,20.73
2023-05-06T00:44:17.790Z,20.74
2023-05-06T00:44:49.770Z,20.75
2023-05-06T00:45:21.287Z,20.76
2023-05-06T00:45:52.997Z,20.75
2023-05-06T00:46:24.636Z,20.74
2023-05-06T00:46:56.645Z,20.75
2023-05-06T00:47:28.274Z,20.74
2023-05-06T00:47:59.844Z,20.74
2023-05-06T00:48:31.450Z,20.75
2023-05-06T00:49:03.029Z,20.78
2023-05-06T00:49:34.557Z,20.73
2023-05-06T00:50:06.333Z,20.74
2023-05-06T00:50:38.035Z,20.74
2023-05-06T00:51:09.671Z,20.76
2023-05-06T00:51:41.168Z,20.75
2023-05-06T00:52:13.004Z,20.76
2023-05-06T00:52:44.546Z,20.75
2023-05-06T00:53:18.612Z,20.75
2023-05-06T00:53:50.253Z,20.76
2023-05-06T00:54:21.820Z,20.75
2023-05-06T00:54:53.353Z,20.75
2023-05-06T00:55:24.982Z,20.76
2023-05-06T00:55:56.488Z,20.75
2023-05-06T00:56:28.132Z,20.75
2023-05-06T00:56:59.696Z,20.75
2023-05-06T00:57:31.436Z,20.75
2023-05-06T00:58:03.292Z,20.75
2023-05-06T00:58:34.844Z,20.74
2023-05-06T00:59:06.353Z,20.74
2023-05-06T00:59:37.941Z,20.72
2023-05-06T01:00:09.768Z,20.74
2023-05-06T01:00:41.827Z,20.74
2023-05-06T01:01:13.364Z,20.75
2023-05-06T01:01:44.994Z,20.73
2023-05-06T01:02:16.617Z,20.71
2023-05-06T01:02:48.450Z,20.74
2023-05-06T01:03:20.307Z,20.74
2023-05-06T01:03:52.072Z,20.74
2023-05-06T01:04:23.743Z,20.73
2023-05-06T01:04:55.326Z,20.73
2023-05-06T01:05:29.046Z,20.75
2023-05-06T01:06:03.469Z,20.75
2023-05-06T01:06:40.752Z,20.73
2023-05-06T01:07:16.594Z,20.73
2023-05-06T01:08:08.379Z,20.71
2023-05-06T01:08:59.188Z,20.71
2023-05-06T01:09:32.281Z,20.72
2023-05-06T01:10:13.814Z,20.73
2023-05-06T01:10:47.365Z,20.72
2023-05-06T01:11:44.973Z,20.72
2023-05-06T01:12:17.513Z,20.74
2023-05-06T01:12:50.769Z,20.76
2023-05-06T01:13:45.477Z,20.73
2023-05-06T01:14:30.672Z,20.73
2023-05-06T01:15:04.023Z,20.72
2023-05-06T01:15:38.667Z,20.72
2023-05-06T01:16:10.259Z,20.72
2023-05-06T01:16:41.903Z,20.73
2023-05-06T01:17:13.757Z,20.69
2023-05-06T01:17:45.725Z,20.71
2023-05-06T01:18:17.679Z,20.71
2023-05-06T01:18:49.181Z,20.70
2023-05-06T01:19:39.344Z,20.68
2023-05-06T01:20:10.914Z,20.69
2023-05-06T01:20:42.455Z,20.70
2023-05-06T01:21:14.010Z,20.69
2023-05-06T01:21:45.498Z,20.69
2023-05-06T01:22:17.044Z,20.68
2023-05-06T01:22:49.329Z,20.67
2023-05-06T01:23:20.953Z,20.67
2023-05-06T01:23:53.165Z,20.67
2023-05-06T01:24:34.083Z,20.67
2023-05-06T01:25:05.992Z,20.66
2023-05-06T01:25:37.553Z,20.68
2023-05-06T01:26:09.138Z,20.66
2023-05-06T01:26:40.737Z,20.65
2023-05-06T01:27:12.804Z,20.66
2023-05-06T01:27:44.427Z,20.67
2023-05-06T01:28:16.033Z,20.65
2023-05-06T01:28:47.631Z,20.66
2023-05-06T01:29:19.143Z,20.67
2023-05-06T01:29:50.647Z,20.66
2023-05-06T01:30:22.228Z,20.67
2023-05-06T01:31:01.001Z,20.63
2023-05-06T01:31:35.966Z,20.66
2023-05-06T01:32:13.022Z,20.66
2023-05-06T01:32:50.819Z,20.69
2023-05-06T01:33:40.139Z,20.68
2023-05-06T01:34:14.373Z,20.66
2023-05-06T01:34:49.773Z,20.67
2023-05-06T01:35:21.248Z,20.65
2023-05-06T01:35:55.421Z,20.66
2023-05-06T01:36:36.463Z,20.66
2023-05-06T01:38:23.709Z,20.67
2023-05-06T01:39:06.113Z,20.68
2023-05-06T01:39:37.563Z,20.65
2023-05-06T01:40:09.074Z,20.66
2023-05-06T01:40:40.522Z,20.65
2023-05-06T01:41:13.434Z,20.65
2023-05-06T01:41:44.930Z,20.64
2023-05-06T01:42:16.479Z,20.65
2023-05-06T01:42:48.099Z,20.64
2023-05-06T01:43:19.639Z,20.63
2023-05-06T01:43:51.005Z,20.64
2023-05-06T01:44:22.486Z,20.64
2023-05-06T01:44:54.959Z,20.62
2023-05-06T01:45:27.582Z,20.63
2023-05-06T01:45:59.064Z,20.64
2023-05-06T01:46:30.626Z,20.63
2023-05-06T01:47:01.989Z,20.62
2023-05-06T01:47:33.479Z,20.62
2023-05-06T01:48:05.198Z,20.62
2023-05-06T01:48:36.647Z,20.64
2023-05-06T01:49:08.212Z,20.63
2023-05-06T01:49:39.654Z,20.62
2023-05-06T01:50:11.080Z,20.63
2023-05-06T01:50:42.519Z,20.62
2023-05-06T01:51:13.991Z,20.63
2023-05-06T01:51:48.494Z,20.65
2023-05-06T01:52:20.999Z,20.63
2023-05-06T01:52:59.007Z,20.64
2023-05-06T01:53:31.638Z,20.63
2023-05-06T01:54:03.104Z,20.63
2023-05-06T01:54:34.580Z,20.63
2023-05-06T01:55:06.645Z,20.61
2023-05-06T01:55:38.132Z,20.62
2023-05-06T01:56:09.678Z,20.64
2023-05-06T01:56:41.154Z,20.62
2023-05-06T01:57:12.583Z,20.62
2023-05-06T01:57:44.077Z,20.62
2023-05-06T01:58:15.561Z,20.63
2023-05-06T01:58:47.149Z,20.63
2023-05-06T01:59:18.656Z,20.61
2023-05-06T01:59:50.216Z,20.61
2023-05-06T02:00:21.711Z,20.59
2023-05-06T02:00:53.359Z,20.62
2023-05-06T02:01:24.803Z,20.62
2023-05-06T02:01:56.367Z,20.62
2023-05-06T02:02:27.955Z,20.61
2023-05-06T02:02:59.493Z,20.63
2023-05-06T02:03:31.252Z,20.63
2023-05-06T02:04:02.978Z,20.60
2023-05-06T02:04:34.600Z,20.62
2023-05-06T02:05:06.358Z,20.63
2023-05-06T02:05:37.808Z,20.63
2023-05-06T02:06:09.261Z,20.62
2023-05-06T02:06:40.719Z,20.63
2023-05-06T02:07:12.242Z,20.63
2023-05-06T02:07:43.735Z,20.62
2023-05-06T02:08:15.309Z,20.61
2023-05-06T02:08:46.834Z,20.62
2023-05-06T02:09:18.379Z,20.61
2023-05-06T02:09:49.795Z,20.60
2023-05-06T02:10:21.247Z,20.59
2023-05-06T02:10:52.674Z,20.59
2023-05-06T02:11:24.096Z,20.59
2023-05-06T02:11:55.543Z,20.59
2023-05-06T02:12:27.063Z,20.60
2023-05-06T02:12:58.573Z,20.60
2023-05-06T02:13:30.011Z,20.59
2023-05-06T02:14:01.552Z,20.60
2023-05-06T02:14:33.014Z,20.60
2023-05-06T02:15:04.756Z,20.61
2023-05-06T02:15:36.299Z,20.60
2023-05-06T02:16:07.860Z,20.61
2023-05-06T02:16:39.387Z,20.62
2023-05-06T02:17:10.985Z,20.61
2023-05-06T02:17:42.694Z,20.61
2023-05-06T02:18:14.217Z,20.59
2023-05-06T02:18:45.636Z,20.60
2023-05-06T02:19:17.279Z,20.59
2023-05-06T02:19:48.745Z,20.58
2023-05-06T02:20:20.288Z,20.59
2023-05-06T02:20:51.798Z,20.57
2023-05-06T02:21:23.581Z,20.56
2023-05-06T02:21:55.076Z,20.58
2023-05-06T02:22:26.569Z,20.58
2023-05-06T02:22:58.391Z,20.59
2023-05-06T02:23:29.967Z,20.58
2023-05-06T02:24:01.523Z,20.59
2023-05-06T02:24:33.073Z,20.59
2023-05-06T02:25:04.726Z,20.58
2023-05-06T02:25:36.186Z,20.57
2023-05-06T02:26:07.593Z,20.57
2023-05-06T02:26:39.024Z,20.56
2023-05-06T02:27:10.470Z,20.56
2023-05-06T02:27:41.893Z,20.56
2023-05-06T02:28:13.419Z,20.58
2023-05-06T02:28:45.053Z,20.59
2023-05-06T02:29:16.544Z,20.57
2023-05-06T02:29:48.089Z,20.57
2023-05-06T02:30:19.624Z,20.59
2023-05-06T02:30:54.837Z,20.56
2023-05-06T02:31:26.426Z,20.55
2023-05-06T02:31:57.967Z,20.56
2023-05-06T02:32:29.403Z,20.55
2023-05-06T02:33:00.968Z,20.55
2023-05-06T02:33:32.501Z,20.54
2023-05-06T02:34:04.476Z,20.53
2023-05-06T02:34:35.957Z,20.52
2023-05-06T02:35:08.082Z,20.54
2023-05-06T02:35:39.722Z,20.54
2023-05-06T02:36:11.161Z,20.54
2023-05-06T02:36:42.568Z,20.54
2023-05-06T02:37:14.123Z,20.54
2023-05-06T02:37:45.517Z,20.56
2023-05-06T02:38:17.098Z,20.54
2023-05-06T02:38:48.607Z,20.52
2023-05-06T02:39:20.114Z,20.52
2023-05-06T02:39:51.593Z,20.51
2023-05-06T02:40:23.080Z,20.52
2023-05-06T02:40:54.544Z,20.54
2023-05-06T02:41:25.937Z,20.52
2023-05-06T02:41:57.434Z,20.54
2023-05-06T02:42:28.846Z,20.54
2023-05-06T02:43:00.388Z,20.53
2023-05-06T02:43:31.823Z,20.54
2023-05-06T02:44:03.283Z,20.53
2023-05-06T02:44:34.746Z,20.52
2023-05-06T02:45:06.464Z,20.53
2023-05-06T02:45:37.899Z,20.53
2023-05-06T02:46:09.590Z,20.53
2023-05-06T02:46:41.086Z,20.55
2023-05-06T02:47:12.540Z,20.52
2023-05-06T02:47:44.148Z,20.53
2023-05-06T02:48:15.662Z,20.53
2023-05-06T02:48:47.058Z,20.51
2023-05-06T02:49:18.598Z,20.53
2023-05-06T02:49:50.026Z,20.51
2023-05-06T02:50:21.575Z,20.50
2023-05-06T02:50:53.037Z,20.52
2023-05-06T02:51:24.558Z,20.52
2023-05-06T02:51:56.034Z,20.51
2023-05-06T02:52:27.504Z,20.51
2023-05-06T02:52:58.970Z,20.51
2023-05-06T02:53:30.398Z,20.52
2023-05-06T02:54:01.939Z,20.53
2023-05-06T02:54:33.482Z,20.53
2023-05-06T02:55:05.657Z,20.53
2023-05-06T02:55:37.145Z,20.53
2023-05-06T02:56:08.718Z,20.53
2023-05-06T02:56:40.378Z,20.53
2023-05-06T02:57:11.803Z,20.53
2023-05-06T02:57:43.268Z,20.53
2023-05-06T02:58:14.764Z,20.52
2023-05-06T02:58:46.206Z,20.54
2023-05-06T02:59:17.645Z,20.55
2023-05-06T02:59:49.109Z,20.52
2023-05-06T03:00:20.703Z,20.52
2023-05-06T03:00:52.201Z,20.52
2023-05-06T03:01:23.686Z,20.50
2023-05-06T03:01:55.186Z,20.51
2023-05-06T03:02:26.612Z,20.52
2023-05-06T03:02:58.207Z,20.49
2023-05-06T03:03:29.665Z,20.50
2023-05-06T03:04:01.073Z,20.49
2023-05-06T03:04:32.685Z,20.48
2023-05-06T03:05:04.359Z,20.48
2023-05-06T03:05:35.808Z,20.48
2023-05-06T03:06:07.326Z,20.48
2023-05-06T03:06:38.807Z,20.48
2023-05-06T03:07:10.221Z,20.48
2023-05-06T03:07:41.708Z,20.46
2023-05-06T03:08:13.153Z,20.48
2023-05-06T03:08:44.597Z,20.47
2023-05-06T03:09:16.059Z,20.47
2023-05-06T03:09:47.528Z,20.46
2023-05-06T03:10:19.101Z,20.45
2023-05-06T03:10:50.591Z,20.44
2023-05-06T03:11:22.098Z,20.43
2023-05-06T03:11:53.531Z,20.43
2023-05-06T03:12:25.033Z,20.44
2023-05-06T03:12:56.534Z,20.45
2023-05-06T03:13:27.947Z,20.44
2023-05-06T03:13:59.351Z,20.43
2023-05-06T03:14:30.794Z,20.42
2023-05-06T03:15:02.207Z,20.44
2023-05-06T03:15:33.706Z,20.43
2023-05-06T03:16:05.329Z,20.44
2023-05-06T03:16:36.905Z,20.41
2023-05-06T03:17:08.449Z,20.42
2023-05-06T03:17:39.942Z,20.42
2023-05-06T03:18:11.651Z,20.43
2023-05-06T03:18:43.103Z,20.44
2023-05-06T03:19:14.634Z,20.43
2023-05-06T03:19:46.130Z,20.41
2023-05-06T03:20:17.694Z,20.42
2023-05-06T03:20:49.272Z,20.43
2023-05-06T03:21:20.816Z,20.41
2023-05-06T03:21:52.299Z,20.41
2023-05-06T03:22:23.772Z,20.43
2023-05-06T03:22:55.693Z,20.42
2023-05-06T03:23:27.259Z,20.40
2023-05-06T03:23:58.941Z,20.40
2023-05-06T03:24:30.471Z,20.41
2023-05-06T03:25:01.958Z,20.42
2023-05-06T03:25:33.491Z,20.39
2023-05-06T03:26:05.031Z,20.39
2023-05-06T03:26:36.562Z,20.41
2023-05-06T03:27:07.967Z,20.37
2023-05-06T03:27:39.477Z,20.37
2023-05-06T03:28:11.289Z,20.36
2023-05-06T03:28:42.926Z,20.35
2023-05-06T03:29:14.426Z,20.35
2023-05-06T03:29:45.914Z,20.36
2023-05-06T03:30:17.375Z,20.35
2023-05-06T03:30:48.923Z,20.35
2023-05-06T03:31:20.436Z,20.35
2023-05-06T03:31:51.966Z,20.35
2023-05-06T03:32:23.515Z,20.33
2023-05-06T03:32:55.243Z,20.33
2023-05-06T03:33:26.771Z,20.33
2023-05-06T03:33:58.248Z,20.35
2023-05-06T03:34:29.836Z,20.34
2023-05-06T03:35:01.315Z,20.35
2023-05-06T03:35:32.824Z,20.33
2023-05-06T03:36:04.550Z,20.32
2023-05-06T03:36:36.121Z,20.33
2023-05-06T03:37:07.661Z,20.33
2023-05-06T03:37:39.138Z,20.33
2023-05-06T03:38:10.642Z,20.33
2023-05-06T03:38:42.152Z,20.35
2023-05-06T03:39:13.564Z,20.33
2023-05-06T03:39:45.195Z,20.34
2023-05-06T03:40:16.655Z,20.34
2023-05-06T03:40:48.163Z,20.36
2023-05-06T03:41:19.619Z,20.35
2023-05-06T03:41:51.096Z,20.34
2023-05-06T03:42:22.606Z,20.32
2023-05-06T03:42:54.053Z,20.33
2023-05-06T03:43:25.560Z,20.34
2023-05-06T03:43:57.050Z,20.35
2023-05-06T03:44:28.512Z,20.34
2023-05-06T03:44:59.971Z,20.33
2023-05-06T03:45:31.458Z,20.34
2023-05-06T03:46:03.147Z,20.33
2023-05-06T03:46:34.850Z,20.33
2023-05-06T03:47:06.418Z,20.34
2023-05-06T03:47:37.918Z,20.33
2023-05-06T03:48:09.606Z,20.33
2023-05-06T03:48:41.121Z,20.33
2023-05-06T03:49:12.860Z,20.33
2023-05-06T03:49:44.321Z,20.34
2023-05-06T03:50:15.872Z,20.35
2023-05-06T03:50:47.300Z,20.34
2023-05-06T03:51:18.806Z,20.33
2023-05-06T03:51:50.254Z,20.32
2023-05-06T03:52:21.920Z,20.32
2023-05-06T03:52:53.428Z,20.32
2023-05-06T03:53:25.203Z,20.30
2023-05-06T03:53:56.740Z,20.31
2023-05-06T03:54:28.227Z,20.30
2023-05-06T03:54:59.668Z,20.30
2023-05-06T03:55:31.098Z,20.29
2023-05-06T03:56:02.558Z,20.30
2023-05-06T03:56:34.003Z,20.30
2023-05-06T03:57:05.518Z,20.28
2023-05-06T03:57:37.148Z,20.28
2023-05-06T03:58:08.584Z,20.28
2023-05-06T03:58:40.152Z,20.28
2023-05-06T03:59:11.676Z,20.27
2023-05-06T03:59:43.273Z,20.27
2023-05-06T04:00:14.804Z,20.28
2023-05-06T04:00:46.311Z,20.29
2023-05-06T04:01:17.832Z,20.27
2023-05-06T04:01:49.382Z,20.25
2023-05-06T04:02:20.950Z,20.27
2023-05-06T04:02:52.560Z,20.24
2023-05-06T04:03:24.191Z,20.23
2023-05-06T04:03:55.727Z,20.26
2023-05-06T04:04:27.350Z,20.26
2023-05-06T04:04:58.902Z,20.25
2023-05-06T04:05:30.381Z,20.25
2023-05-06T04:06:01.874Z,20.26
2023-05-06T04:06:33.332Z,20.26
2023-05-06T04:07:04.792Z,20.26
2023-05-06T04:07:36.259Z,20.26
2023-05-06T04:08:07.772Z,20.26
2023-05-06T04:08:39.270Z,20.25
2023-05-06T04:09:10.797Z,20.26
2023-05-06T04:09:42.372Z,20.28
2023-05-06T04:10:13.997Z,20.27
2023-05-06T04:10:45.632Z,20.26
2023-05-06T04:11:17.133Z,20.26
2023-05-06T04:11:48.633Z,20.24
2023-05-06T04:12:20.053Z,20.24
2023-05-06T04:12:51.557Z,20.25
2023-05-06T04:13:23.202Z,20.24
2023-05-06T04:13:54.742Z,20.26
2023-05-06T04:14:26.205Z,20.26
2023-05-06T04:14:57.664Z,20.28
2023-05-06T04:15:29.134Z,20.26
2023-05-06T04:16:00.870Z,20.25
2023-05-06T04:16:32.436Z,20.24
2023-05-06T04:17:03.938Z,20.24
2023-05-06T04:17:35.473Z,20.23
2023-05-06T04:18:07.066Z,20.24
2023-05-06T04:18:38.610Z,20.23
2023-05-06T04:19:10.071Z,20.21
2023-05-06T04:19:41.499Z,20.21
2023-05-06T04:20:13.110Z,20.22
2023-05-06T04:20:47.386Z,20.21
2023-05-06T04:21:18.949Z,20.22
2023-05-06T04:21:50.432Z,20.24
2023-05-06T04:22:21.876Z,20.21
2023-05-06T04:22:53.370Z,20.22
2023-05-06T04:23:24.864Z,20.20
2023-05-06T04:23:56.420Z,20.20
2023-05-06T04:24:27.916Z,20.19
2023-05-06T04:24:59.286Z,20.20
2023-05-06T04:25:30.766Z,20.22
2023-05-06T04:26:02.286Z,20.22
2023-05-06T04:26:33.816Z,20.22
2023-05-06T04:27:05.224Z,20.23
2023-05-06T04:27:36.775Z,20.22
2023-05-06T04:28:11.150Z,20.22
2023-05-06T04:28:42.663Z,20.24
2023-05-06T04:29:14.161Z,20.24
2023-05-06T04:29:45.782Z,20.25
2023-05-06T04:30:17.299Z,20.26
2023-05-06T04:30:48.833Z,20.23
2023-05-06T04:31:20.393Z,20.24
2023-05-06T04:31:51.938Z,20.24
2023-05-06T04:32:23.410Z,20.26
2023-05-06T04:32:54.927Z,20.25
2023-05-06T04:33:26.340Z,20.23
2023-05-06T04:33:57.921Z,20.22
2023-05-06T04:34:29.360Z,20.22
2023-05-06T04:35:00.862Z,20.22
2023-05-06T04:35:32.428Z,20.23
2023-05-06T04:36:04.097Z,20.21
2023-05-06T04:36:35.562Z,20.21
2023-05-06T04:37:07.043Z,20.23
2023-05-06T04:37:38.836Z,20.23
2023-05-06T04:38:10.427Z,20.20
2023-05-06T04:38:41.902Z,20.18
2023-05-06T04:39:13.880Z,20.19
2023-05-06T04:39:45.453Z,20.19
2023-05-06T04:40:19.704Z,20.18
2023-05-06T04:40:51.412Z,20.17
2023-05-06T04:41:22.869Z,20.16
2023-05-06T04:41:54.273Z,20.17
2023-05-06T04:42:25.764Z,20.15
2023-05-06T04:42:57.228Z,20.15
2023-05-06T04:43:28.682Z,20.15
2023-05-06T04:44:00.296Z,20.12
2023-05-06T04:44:31.772Z,20.12
2023-05-06T04:45:03.689Z,20.12
2023-05-06T04:45:35.164Z,20.14
2023-05-06T04:46:06.719Z,20.15
2023-05-06T04:46:38.304Z,20.15
2023-05-06T04:47:09.820Z,20.14
2023-05-06T04:47:41.285Z,20.13
2023-05-06T04:48:12.780Z,20.11
2023-05-06T04:48:44.242Z,20.12
2023-05-06T04:49:15.774Z,20.12
2023-05-06T04:49:47.286Z,20.11
2023-05-06T04:50:18.811Z,20.12
2023-05-06T04:50:50.539Z,20.12
2023-05-06T04:51:22.092Z,20.11
2023-05-06T04:51:53.524Z,20.12
2023-05-06T04:52:25.024Z,20.12
2023-05-06T04:52:56.476Z,20.14
2023-05-06T04:53:28.004Z,20.15
2023-05-06T04:53:59.600Z,20.16
2023-05-06T04:54:31.053Z,20.15
2023-05-06T04:55:02.510Z,20.15
2023-05-06T04:55:34.185Z,20.15
2023-05-06T04:56:05.732Z,20.15
2023-05-06T04:56:37.243Z,20.15
2023-05-06T04:57:08.709Z,20.16
2023-05-06T04:57:40.334Z,20.16
2023-05-06T04:58:11.829Z,20.17
2023-05-06T04:58:43.442Z,20.15
2023-05-06T04:59:14.916Z,20.16
2023-05-06T04:59:46.386Z,20.17
2023-05-06T05:00:17.918Z,20.14
2023-05-06T05:00:49.414Z,20.14
2023-05-06T05:01:21.008Z,20.18
2023-05-06T05:01:52.561Z,20.16
2023-05-06T05:02:24.135Z,20.18
2023-05-06T05:02:55.778Z,20.17
2023-05-06T05:03:27.404Z,20.17
2023-05-06T05:03:59.099Z,20.15
2023-05-06T05:04:30.616Z,20.14
2023-05-06T05:05:02.409Z,20.16
2023-05-06T05:05:33.964Z,20.18
2023-05-06T05:06:05.517Z,20.15
2023-05-06T05:06:36.991Z,20.15
2023-05-06T05:07:08.400Z,20.15
2023-05-06T05:07:39.885Z,20.14
2023-05-06T05:08:11.267Z,20.15
2023-05-06T05:08:42.807Z,20.15
2023-05-06T05:09:14.214Z,20.16
2023-05-06T05:09:45.667Z,20.15
2023-05-06T05:10:17.209Z,20.14
2023-05-06T05:10:48.640Z,20.14
2023-05-06T05:11:20.093Z,20.13
2023-05-06T05:11:51.568Z,20.13
2023-05-06T05:12:23.063Z,20.14
2023-05-06T05:12:54.525Z,20.15
2023-05-06T05:13:26.104Z,20.16
2023-05-06T05:13:58.888Z,20.15
2023-05-06T05:14:31.674Z,20.14
2023-05-06T05:15:03.239Z,20.14
2023-05-06T05:15:34.694Z,20.15
2023-05-06T05:16:06.357Z,20.14
2023-05-06T05:16:37.951Z,20.13
2023-05-06T05:17:09.746Z,20.14
2023-05-06T05:17:41.423Z,20.14
2023-05-06T05:18:13.015Z,20.15
2023-05-06T05:18:44.505Z,20.16
2023-05-06T05:19:16.010Z,20.15
2023-05-06T05:19:47.509Z,20.16
2023-05-06T05:20:19.297Z,20.16
2023-05-06T05:20:50.811Z,20.14
2023-05-06T05:21:22.258Z,20.15
2023-05-06T05:21:53.810Z,20.16
2023-05-06T05:22:25.203Z,20.15
2023-05-06T05:22:56.770Z,20.13
2023-05-06T05:23:28.316Z,20.14
2023-05-06T05:23:59.795Z,20.16
2023-05-06T05:24:31.238Z,20.15
2023-05-06T05:25:02.763Z,20.15
2023-05-06T05:25:34.135Z,20.14
2023-05-06T05:26:05.684Z,20.14
2023-05-06T05:26:37.112Z,20.14
2023-05-06T05:27:08.739Z,20.12
2023-05-06T05:27:40.235Z,20.14
2023-05-06T05:28:11.728Z,20.15
2023-05-06T05:28:43.259Z,20.16
2023-05-06T05:29:14.644Z,20.15
2023-05-06T05:29:46.155Z,20.16
2023-05-06T05:30:17.621Z,20.16
2023-05-06T05:30:49.212Z,20.16
2023-05-06T05:31:20.786Z,20.17
2023-05-06T05:31:52.264Z,20.16
2023-05-06T05:32:23.807Z,20.18
2023-05-06T05:32:55.386Z,20.18
2023-05-06T05:33:27.011Z,20.16
2023-05-06T05:33:58.561Z,20.16
2023-05-06T05:34:30.253Z,20.17
2023-05-06T05:35:01.721Z,20.17
2023-05-06T05:35:33.170Z,20.17
2023-05-06T05:36:04.758Z,20.16
2023-05-06T05:36:36.245Z,20.16
2023-05-06T05:37:07.779Z,20.15
2023-05-06T05:37:39.288Z,20.16
2023-05-06T05:38:10.915Z,20.16
2023-05-06T05:38:42.449Z,20.15
2023-05-06T05:39:13.894Z,20.15
2023-05-06T05:39:45.412Z,20.15
2023-05-06T05:40:16.864Z,20.15
2023-05-06T05:40:48.310Z,20.17
2023-05-06T05:41:19.799Z,20.16
2023-05-06T05:41:51.322Z,20.16
2023-05-06T05:42:22.828Z,20.17
2023-05-06T05:42:54.361Z,20.18
2023-05-06T05:43:25.851Z,20.17
2023-05-06T05:43:57.283Z,20.18
2023-05-06T05:44:28.763Z,20.18
2023-05-06T05:45:00.368Z,20.19
2023-05-06T05:45:31.915Z,20.19
2023-05-06T05:46:03.487Z,20.19
2023-05-06T05:46:34.958Z,20.19
2023-05-06T05:47:06.481Z,20.20
2023-05-06T05:47:37.973Z,20.20
2023-05-06T05:48:09.449Z,20.18
2023-05-06T05:48:40.903Z,20.16
2023-05-06T05:49:12.423Z,20.17
2023-05-06T05:49:43.978Z,20.17
2023-05-06T05:50:15.438Z,20.19
2023-05-06T05:50:46.918Z,20.16
2023-05-06T05:51:18.404Z,20.17
2023-05-06T05:51:49.842Z,20.18
2023-05-06T05:52:21.426Z,20.17
2023-05-06T05:52:52.847Z,20.19
2023-05-06T05:53:24.264Z,20.19
2023-05-06T05:53:55.768Z,20.19
2023-05-06T05:54:27.194Z,20.18
2023-05-06T05:54:58.792Z,20.17
2023-05-06T05:55:30.224Z,20.16
2023-05-06T05:56:01.697Z,20.19
2023-05-06T05:56:33.112Z,20.19
2023-05-06T05:57:04.620Z,20.19
2023-05-06T05:57:36.042Z,20.18
2023-05-06T05:58:07.552Z,20.18
2023-05-06T05:58:38.996Z,20.19
2023-05-06T05:59:10.550Z,20.18
2023-05-06T05:59:42.004Z,20.17
2023-05-06T06:00:14.866Z,20.17
2023-05-06T06:00:46.324Z,20.18
2023-05-06T06:01:17.834Z,20.18
2023-05-06T06:01:49.444Z,20.19
2023-05-06T06:02:21.077Z,20.18
2023-05-06T06:02:52.798Z,20.19
2023-05-06T06:03:24.497Z,20.20
2023-05-06T06:03:56.338Z,20.21
2023-05-06T06:04:28.019Z,20.20
2023-05-06T06:04:59.588Z,20.21
2023-05-06T06:05:31.237Z,20.21
2023-05-06T06:06:02.691Z,20.22
2023-05-06T06:06:34.130Z,20.21
2023-05-06T06:07:05.572Z,20.21
2023-05-06T06:07:37.141Z,20.23
2023-05-06T06:08:08.718Z,20.21
2023-05-06T06:08:40.288Z,20.19
2023-05-06T06:09:11.759Z,20.21
2023-05-06T06:09:43.212Z,20.21
2023-05-06T06:10:14.680Z,20.22
2023-05-06T06:10:46.208Z,20.21
2023-05-06T06:11:17.747Z,20.22
2023-05-06T06:11:49.220Z,20.22
2023-05-06T06:12:20.712Z,20.21
2023-05-06T06:12:52.462Z,20.23
2023-05-06T06:13:25.217Z,20.23
2023-05-06T06:13:58.027Z,20.23
2023-05-06T06:14:29.500Z,20.23
2023-05-06T06:15:00.966Z,20.22
2023-05-06T06:15:32.460Z,20.21
2023-05-06T06:16:04.454Z,20.21
2023-05-06T06:16:36.495Z,20.22
2023-05-06T06:17:08.016Z,20.22
2023-05-06T06:17:39.554Z,20.22
2023-05-06T06:18:11.105Z,20.22
2023-05-06T06:18:42.574Z,20.22
2023-05-06T06:19:14.071Z,20.24
2023-05-06T06:19:45.705Z,20.25
2023-05-06T06:20:17.199Z,20.24
2023-05-06T06:20:50.014Z,20.24
2023-05-06T06:21:22.550Z,20.23
2023-05-06T06:21:54.018Z,20.25
2023-05-06T06:22:25.502Z,20.25
2023-05-06T06:22:57.045Z,20.28
2023-05-06T06:23:28.576Z,20.27
2023-05-06T06:23:59.989Z,20.28
2023-05-06T06:24:31.456Z,20.28
2023-05-06T06:25:02.997Z,20.26
2023-05-06T06:25:34.481Z,20.26
2023-05-06T06:26:06.013Z,20.26
2023-05-06T06:26:37.565Z,20.26
2023-05-06T06:27:09.109Z,20.27
2023-05-06T06:27:40.641Z,20.27
2023-05-06T06:28:12.101Z,20.28
2023-05-06T06:28:43.700Z,20.29
2023-05-06T06:29:15.381Z,20.27
2023-05-06T06:29:49.495Z,20.26
2023-05-06T06:30:21.031Z,20.28
2023-05-06T06:30:52.517Z,20.27
2023-05-06T06:31:24.010Z,20.28
2023-05-06T06:31:55.603Z,20.28
2023-05-06T06:32:27.155Z,20.29
2023-05-06T06:32:58.870Z,20.30
2023-05-06T06:33:30.431Z,20.33
2023-05-06T06:34:01.894Z,20.30
2023-05-06T06:34:33.382Z,20.31
2023-05-06T06:35:05.020Z,20.33
2023-05-06T06:35:36.520Z,20.34
2023-05-06T06:36:08.214Z,20.34
2023-05-06T06:36:40.574Z,20.34
2023-05-06T06:37:12.096Z,20.34
2023-05-06T06:37:43.548Z,20.34
2023-05-06T06:38:14.944Z,20.35
2023-05-06T06:38:46.454Z,20.36
2023-05-06T06:39:17.930Z,20.36
2023-05-06T06:39:49.392Z,20.34
2023-05-06T06:40:21.394Z,20.37
2023-05-06T06:40:52.918Z,20.36
2023-05-06T06:41:24.496Z,20.36
2023-05-06T06:41:56.450Z,20.35
2023-05-06T06:42:27.986Z,20.35
2023-05-06T06:42:59.451Z,20.36
2023-05-06T06:43:30.867Z,20.37
2023-05-06T06:44:02.343Z,20.38
2023-05-06T06:44:34.091Z,20.38
2023-05-06T06:45:07.144Z,20.37
2023-05-06T06:45:38.685Z,20.39
2023-05-06T06:46:10.229Z,20.39
2023-05-06T06:46:41.842Z,20.41
2023-05-06T06:47:13.346Z,20.39
2023-05-06T06:47:44.832Z,20.40
2023-05-06T06:48:16.362Z,20.40
2023-05-06T06:48:47.929Z,20.39
2023-05-06T06:49:19.419Z,20.39
2023-05-06T06:49:50.992Z,20.42
2023-05-06T06:50:22.475Z,20.42
2023-05-06T06:50:54.015Z,20.42
2023-05-06T06:51:25.561Z,20.42
2023-05-06T06:51:57.105Z,20.41
2023-05-06T06:52:28.589Z,20.41